createdAt,value
2022-08-20T16:18:24.526Z,0.80
2022-08-20T16:19:30.129Z,0.70
2022-08-20T16:20:24.146Z,1.10
2022-08-20T16:21:23.266Z,1.10
2022-08-20T16:22:22.163Z,0.90
2022-08-20T16:23:22.179Z,1.30
2022-08-20T16:24:22.318Z,1.30
2022-08-20T16:25:22.886Z,0.80
2022-08-20T16:26:23.040Z,0.80
2022-08-20T16:27:22.328Z,0.90
2022-08-20T16:28:22.283Z,1.00
2022-08-20T16:29:22.154Z,0.70
2022-08-20T16:30:22.087Z,1.00
2022-08-20T16:31:22.065Z,0.70
2022-08-20T16:32:22.036Z,1.10
2022-08-20T16:33:22.097Z,1.00
2022-08-20T16:34:33.929Z,1.10
2022-08-20T16:35:26.308Z,0.70
2022-08-20T16:36:22.949Z,1.20
2022-08-20T16:37:21.987Z,0.90
2022-08-20T16:38:22.009Z,0.80
2022-08-20T16:39:22.250Z,0.90
2022-08-20T16:40:22.000Z,0.80
2022-08-20T16:41:21.899Z,1.00
2022-08-20T16:42:21.848Z,0.90
2022-08-20T16:43:21.838Z,0.80
2022-08-20T16:44:22.107Z,0.80
2022-08-20T16:45:21.842Z,1.00
2022-08-20T16:46:21.879Z,0.90
2022-08-20T16:47:22.049Z,0.80
2022-08-20T16:48:26.484Z,1.10
2022-08-20T16:49:30.009Z,1.00
2022-08-20T16:50:22.100Z,1.00
2022-08-20T16:51:21.981Z,0.70
2022-08-20T16:52:22.145Z,1.00
2022-08-20T16:53:22.041Z,1.00
2022-08-20T16:54:29.531Z,0.90
2022-08-20T16:55:24.156Z,0.80
2022-08-20T16:56:22.094Z,0.90
2022-08-20T16:57:21.877Z,0.70
2022-08-20T16:58:21.898Z,0.70
2022-08-20T16:59:27.261Z,1.10
2022-08-20T17:00:22.654Z,1.10
2022-08-20T17:01:21.674Z,1.10
2022-08-20T17:02:21.690Z,0.90
2022-08-20T17:03:38.539Z,0.60
2022-08-20T17:04:22.640Z,1.00
2022-08-20T17:05:22.480Z,0.80
2022-08-20T17:06:22.289Z,0.80
2022-08-20T17:07:21.779Z,0.80
2022-08-20T17:08:22.671Z,0.70
2022-08-20T17:09:22.167Z,1.00
2022-08-20T17:10:21.499Z,0.80
2022-08-20T17:11:22.077Z,0.80
2022-08-20T17:12:21.799Z,0.90
2022-08-20T17:13:21.575Z,0.90
2022-08-20T17:14:22.136Z,0.90
2022-08-20T17:15:25.530Z,0.70
2022-08-20T17:16:22.620Z,0.70
2022-08-20T17:17:26.225Z,0.70
2022-08-20T17:18:23.848Z,0.90
2022-08-20T17:19:23.650Z,1.00
2022-08-20T17:20:22.467Z,0.90
2022-08-20T17:21:25.161Z,0.70
2022-08-20T17:22:24.096Z,0.90
2022-08-20T17:23:21.877Z,0.90
2022-08-20T17:24:21.445Z,0.90
2022-08-20T17:25:22.969Z,1.10
2022-08-20T17:26:22.749Z,0.80
2022-08-20T17:27:22.186Z,0.70
2022-08-20T17:28:21.251Z,0.80
2022-08-20T17:29:21.301Z,1.10
2022-08-20T17:30:21.968Z,0.80
2022-08-20T17:31:21.342Z,0.80
2022-08-20T17:32:22.273Z,0.80
2022-08-20T17:33:21.334Z,1.00
2022-08-20T17:34:22.405Z,1.00
2022-08-20T17:35:21.685Z,0.80
2022-08-20T17:36:22.548Z,0.80
2022-08-20T17:37:22.509Z,0.70
2022-08-20T17:38:21.360Z,0.70
2022-08-20T17:39:21.328Z,0.80
2022-08-20T17:40:21.213Z,1.00
2022-08-20T17:41:21.178Z,0.60
2022-08-20T17:42:21.308Z,0.70
2022-08-20T17:43:21.305Z,0.80
2022-08-20T17:44:21.286Z,1.10
2022-08-20T17:45:21.045Z,1.00
2022-08-20T17:46:21.207Z,0.80
2022-08-20T17:47:21.160Z,0.70
2022-08-20T17:48:24.294Z,0.80
2022-08-20T17:49:21.346Z,0.70
2022-08-20T17:50:21.134Z,0.90
2022-08-20T17:51:22.681Z,0.70
2022-08-20T17:52:20.965Z,0.70
2022-08-20T17:53:23.362Z,0.80
2022-08-20T17:54:21.461Z,0.90
2022-08-20T17:55:20.862Z,0.80
2022-08-20T17:56:20.935Z,0.80
2022-08-20T17:57:20.781Z,0.90
2022-08-20T17:58:22.455Z,0.70
2022-08-20T17:59:36.431Z,1.00
2022-08-20T18:00:21.770Z,0.70
2022-08-20T18:01:20.865Z,0.70
2022-08-20T18:02:20.750Z,0.90
2022-08-20T18:03:20.944Z,0.90
2022-08-20T18:04:21.744Z,0.90
2022-08-20T18:05:20.862Z,0.80
2022-08-20T18:06:22.191Z,0.70
2022-08-20T18:07:35.770Z,1.30
2022-08-20T18:08:20.872Z,0.70
2022-08-20T18:09:20.767Z,0.80
2022-08-20T18:10:20.733Z,0.80
2022-08-20T18:11:23.560Z,0.80
2022-08-20T18:12:32.752Z,0.60
2022-08-20T18:13:22.586Z,0.90
2022-08-20T18:14:20.710Z,0.80
2022-08-20T18:15:24.452Z,0.90
2022-08-20T18:16:21.214Z,0.90
2022-08-20T18:17:20.775Z,0.80
2022-08-20T18:18:20.674Z,0.60
2022-08-20T18:19:20.924Z,0.70
2022-08-20T18:20:21.281Z,0.80
2022-08-20T18:21:21.882Z,1.10
2022-08-20T18:22:21.477Z,0.90
2022-08-20T18:23:20.939Z,0.80
2022-08-20T18:24:20.693Z,0.80
2022-08-20T18:25:21.454Z,0.60
2022-08-20T18:26:20.490Z,1.00
2022-08-20T18:27:22.720Z,0.80
2022-08-20T18:28:21.689Z,0.70
2022-08-20T18:29:21.239Z,0.70
2022-08-20T18:30:20.497Z,0.70
2022-08-20T18:31:20.853Z,0.90
2022-08-20T18:32:21.575Z,0.80
2022-08-20T18:33:20.342Z,1.20
2022-08-20T18:34:20.333Z,0.90
2022-08-20T18:35:20.355Z,0.70
2022-08-20T18:36:20.424Z,0.70
2022-08-20T18:37:20.320Z,1.00
2022-08-20T18:38:20.283Z,0.80
2022-08-20T18:39:20.271Z,0.70
2022-08-20T18:40:20.340Z,0.90
2022-08-20T18:41:20.304Z,0.80
2022-08-20T18:42:20.211Z,1.00
2022-08-20T18:43:20.218Z,0.80
2022-08-20T18:44:20.190Z,1.10
2022-08-20T18:45:20.152Z,0.90
2022-08-20T18:46:20.123Z,0.80
2022-08-20T18:47:20.155Z,1.30
2022-08-20T18:48:20.210Z,0.60
2022-08-20T18:49:20.124Z,0.80
2022-08-20T18:50:20.153Z,0.80
2022-08-20T18:51:20.167Z,0.90
2022-08-20T18:52:20.152Z,0.80
2022-08-20T18:53:20.023Z,1.00
2022-08-20T18:54:20.131Z,0.90
2022-08-20T18:55:20.018Z,1.00
2022-08-20T18:56:19.992Z,0.80
2022-08-20T18:57:20.011Z,0.80
2022-08-20T18:58:20.016Z,0.80
2022-08-20T18:59:20.046Z,0.80
2022-08-20T19:00:20.699Z,1.00
2022-08-20T19:01:19.976Z,1.20
2022-08-20T19:02:20.092Z,0.70
2022-08-20T19:03:19.994Z,1.00
2022-08-20T19:04:19.973Z,0.80
2022-08-20T19:05:19.915Z,1.00
2022-08-20T19:06:20.185Z,0.80
2022-08-20T19:07:19.847Z,0.80
2022-08-20T19:08:20.056Z,1.00
2022-08-20T19:09:20.109Z,0.80
2022-08-20T19:10:27.467Z,0.90
2022-08-20T19:11:20.897Z,0.80
2022-08-20T19:12:19.857Z,0.70
2022-08-20T19:13:21.418Z,0.80
2022-08-20T19:14:20.355Z,0.70
2022-08-20T19:15:19.809Z,0.60
2022-08-20T19:16:19.928Z,0.90
2022-08-20T19:17:19.808Z,0.70
2022-08-20T19:18:19.821Z,1.00
2022-08-20T19:19:19.836Z,0.90
2022-08-20T19:20:19.945Z,1.00
2022-08-20T19:21:19.874Z,0.90
2022-08-20T19:22:20.470Z,0.80
2022-08-20T19:23:20.947Z,0.90
2022-08-20T19:24:20.803Z,1.10
2022-08-20T19:25:19.671Z,0.90
2022-08-20T19:26:25.725Z,0.70
2022-08-20T19:27:22.351Z,0.80
2022-08-20T19:28:19.753Z,1.00
2022-08-20T19:29:22.049Z,0.90
2022-08-20T19:30:19.767Z,0.80
2022-08-20T19:31:20.630Z,0.60
2022-08-20T19:32:19.606Z,0.50
2022-08-20T19:33:19.609Z,1.00
2022-08-20T19:34:22.291Z,1.00
2022-08-20T19:35:19.555Z,1.10
2022-08-20T19:36:19.474Z,0.80
2022-08-20T19:37:34.780Z,1.00
2022-08-20T19:38:21.404Z,0.80
2022-08-20T19:39:19.520Z,0.80
2022-08-20T19:40:20.568Z,0.90
2022-08-20T19:41:23.864Z,0.80
2022-08-20T19:42:20.436Z,0.90
2022-08-20T19:43:19.434Z,1.00
2022-08-20T19:44:19.375Z,0.70
2022-08-20T19:45:21.342Z,1.00
2022-08-20T19:46:21.139Z,0.80
2022-08-20T19:47:20.194Z,0.90
2022-08-20T19:48:27.591Z,0.90
2022-08-20T19:49:20.385Z,1.10
2022-08-20T19:50:19.487Z,0.70
2022-08-20T19:51:19.526Z,0.60
2022-08-20T19:52:19.316Z,0.80
2022-08-20T19:53:19.304Z,1.00
2022-08-20T19:54:20.643Z,0.80
2022-08-20T19:55:19.260Z,1.20
2022-08-20T19:56:20.405Z,0.90
2022-08-20T19:57:19.279Z,1.10
2022-08-20T19:58:26.170Z,1.30
2022-08-20T19:59:20.211Z,1.20
2022-08-20T20:00:19.205Z,1.00
2022-08-20T20:01:19.210Z,1.10
2022-08-20T20:02:21.642Z,1.00
2022-08-20T20:03:19.306Z,1.00
2022-08-20T20:04:19.185Z,1.10
2022-08-20T20:05:19.142Z,1.20
2022-08-20T20:06:19.108Z,1.00
2022-08-20T20:07:19.088Z,1.10
2022-08-20T20:08:19.069Z,1.40
2022-08-20T20:09:19.141Z,1.30
2022-08-20T20:10:19.085Z,1.10
2022-08-20T20:11:19.123Z,1.20
2022-08-20T20:12:23.101Z,0.90
2022-08-20T20:13:19.043Z,1.20
2022-08-20T20:14:19.070Z,1.20
2022-08-20T20:15:19.026Z,0.80
2022-08-20T20:16:19.016Z,1.00
2022-08-20T20:17:22.905Z,1.40
2022-08-20T20:18:18.965Z,1.20
2022-08-20T20:19:27.557Z,0.90
2022-08-20T20:20:22.075Z,1.50
2022-08-20T20:21:20.936Z,1.10
2022-08-20T20:22:20.392Z,0.90
2022-08-20T20:23:18.877Z,1.10
2022-08-20T20:24:20.682Z,1.70
2022-08-20T20:25:18.851Z,0.80
2022-08-20T20:26:18.869Z,1.10
2022-08-20T20:27:20.128Z,1.00
2022-08-20T20:28:18.802Z,1.40
2022-08-20T20:29:18.844Z,1.30
2022-08-20T20:30:19.801Z,1.10
2022-08-20T20:31:18.808Z,1.40
2022-08-20T20:32:19.091Z,0.90
2022-08-20T20:33:18.770Z,1.20
2022-08-20T20:34:19.218Z,1.40
2022-08-20T20:35:18.785Z,1.10
2022-08-20T20:36:18.731Z,1.30
2022-08-20T20:37:18.685Z,1.20
2022-08-20T20:38:19.669Z,1.50
2022-08-20T20:39:18.719Z,1.20
2022-08-20T20:40:19.576Z,1.50
2022-08-20T20:41:18.641Z,1.90
2022-08-20T20:42:18.648Z,1.70
2022-08-20T20:43:18.639Z,1.50
2022-08-20T20:44:18.701Z,1.30
2022-08-20T20:45:18.591Z,1.60
2022-08-20T20:46:18.652Z,1.30
2022-08-20T20:47:18.575Z,1.30
2022-08-20T20:48:18.592Z,1.40
2022-08-20T20:49:18.538Z,1.30
2022-08-20T20:50:18.590Z,1.30
2022-08-20T20:51:18.541Z,1.40
2022-08-20T20:52:18.589Z,1.30
2022-08-20T20:53:18.489Z,1.30
2022-08-20T20:54:18.503Z,1.30
2022-08-20T20:55:18.509Z,1.60
2022-08-20T20:56:18.527Z,1.30
2022-08-20T20:57:18.475Z,1.50
2022-08-20T20:58:19.123Z,1.40
2022-08-20T20:59:18.443Z,1.30
2022-08-20T21:00:18.390Z,1.50
2022-08-20T21:01:18.560Z,1.60
2022-08-20T21:02:19.521Z,1.70
2022-08-20T21:03:18.386Z,2.50
2022-08-20T21:04:18.403Z,2.20
2022-08-20T21:05:18.365Z,1.80
2022-08-20T21:06:18.403Z,2.30
2022-08-20T21:07:18.414Z,3.10
2022-08-20T21:08:18.324Z,2.20
2022-08-20T21:09:18.301Z,2.30
2022-08-20T21:10:18.310Z,2.20
2022-08-20T21:11:18.292Z,2.20
2022-08-20T21:12:18.292Z,2.10
2022-08-20T21:13:18.321Z,1.80
2022-08-20T21:14:18.231Z,1.90
2022-08-20T21:15:18.204Z,2.00
2022-08-20T21:16:18.219Z,2.10
2022-08-20T21:17:18.219Z,2.00
2022-08-20T21:18:19.452Z,1.70
2022-08-20T21:19:18.183Z,1.60
2022-08-20T21:20:18.144Z,1.80
2022-08-20T21:21:18.162Z,1.80
2022-08-20T21:22:18.141Z,1.50
2022-08-20T21:23:18.137Z,1.50
2022-08-20T21:24:18.090Z,1.70
2022-08-20T21:25:18.133Z,2.00
2022-08-20T21:26:18.116Z,1.90
2022-08-20T21:27:18.047Z,1.50
2022-08-20T21:28:18.061Z,1.30
2022-08-20T21:29:18.068Z,1.60
2022-08-20T21:30:18.043Z,1.70
2022-08-20T21:31:17.999Z,1.50
2022-08-20T21:32:18.987Z,2.00
2022-08-20T21:33:18.009Z,1.60
2022-08-20T21:34:17.975Z,1.40
2022-08-20T21:35:18.003Z,1.60
2022-08-20T21:36:17.988Z,1.30
2022-08-20T21:37:18.052Z,1.60
2022-08-20T21:38:18.947Z,1.30
2022-08-20T21:39:17.945Z,1.50
2022-08-20T21:40:18.207Z,1.30
2022-08-20T21:41:17.874Z,1.50
2022-08-20T21:42:28.496Z,1.10
2022-08-20T21:43:18.929Z,1.30
2022-08-20T21:44:17.906Z,1.00
2022-08-20T21:45:18.656Z,0.90
2022-08-20T21:46:17.881Z,1.10
2022-08-20T21:47:18.803Z,1.10
2022-08-20T21:48:17.807Z,1.00
2022-08-20T21:49:17.846Z,1.10
2022-08-20T21:50:18.602Z,1.00
2022-08-20T21:51:17.779Z,1.20
2022-08-20T21:52:17.766Z,1.20
2022-08-20T21:53:17.790Z,1.20
2022-08-20T21:54:17.728Z,1.10
2022-08-20T21:55:17.737Z,1.00
2022-08-20T21:56:17.753Z,1.00
2022-08-20T21:57:17.723Z,1.10
2022-08-20T21:58:17.683Z,0.90
2022-08-20T21:59:17.662Z,1.10
2022-08-20T22:00:18.013Z,1.00
2022-08-20T22:01:20.244Z,1.00
2022-08-20T22:02:17.773Z,1.20
2022-08-20T22:03:20.048Z,1.10
2022-08-20T22:04:18.067Z,1.00
2022-08-20T22:05:17.785Z,1.10
2022-08-20T22:06:17.725Z,0.80
2022-08-20T22:07:19.163Z,1.00
2022-08-20T22:08:17.994Z,1.30
2022-08-20T22:09:17.548Z,1.10
2022-08-20T22:10:18.409Z,1.40
2022-08-20T22:11:17.561Z,1.10
2022-08-20T22:12:17.758Z,1.40
2022-08-20T22:13:17.523Z,1.30
2022-08-20T22:14:20.706Z,1.00
2022-08-20T22:15:17.583Z,0.70
2022-08-20T22:16:17.453Z,1.40
2022-08-20T22:17:17.944Z,1.20
2022-08-20T22:18:17.579Z,1.20
2022-08-20T22:19:17.776Z,1.20
2022-08-20T22:20:17.583Z,1.10
2022-08-20T22:21:17.642Z,1.00
2022-08-20T22:22:18.682Z,1.30
2022-08-20T22:23:17.382Z,1.20
2022-08-20T22:24:17.342Z,1.20
2022-08-20T22:25:17.374Z,1.30
2022-08-20T22:26:17.309Z,1.50
2022-08-20T22:27:17.306Z,0.90
2022-08-20T22:28:17.313Z,1.00
2022-08-20T22:29:17.266Z,1.10
2022-08-20T22:30:17.234Z,1.30
2022-08-20T22:31:17.252Z,1.00
2022-08-20T22:32:17.272Z,1.30
2022-08-20T22:33:17.207Z,1.00
2022-08-20T22:34:17.294Z,1.00
2022-08-20T22:35:17.170Z,1.10
2022-08-20T22:36:17.151Z,1.00
2022-08-20T22:37:17.171Z,1.20
2022-08-20T22:38:17.157Z,1.10
2022-08-20T22:39:17.213Z,1.60
2022-08-20T22:40:17.179Z,1.20
2022-08-20T22:41:17.165Z,1.30
2022-08-20T22:42:17.104Z,1.10
2022-08-20T22:43:17.087Z,1.20
2022-08-20T22:44:17.101Z,1.00
2022-08-20T22:45:17.047Z,1.20
2022-08-20T22:46:17.048Z,0.90
2022-08-20T22:47:17.075Z,1.40
2022-08-20T22:48:17.028Z,1.10
2022-08-20T22:49:17.014Z,1.20
2022-08-20T22:50:16.992Z,1.20
2022-08-20T22:51:16.944Z,0.90
2022-08-20T22:52:16.962Z,1.30
2022-08-20T22:53:16.963Z,0.90
2022-08-20T22:54:16.946Z,1.30
2022-08-20T22:55:16.935Z,1.40
2022-08-20T22:56:19.870Z,0.90
2022-08-20T22:57:20.311Z,1.10
2022-08-20T22:58:16.883Z,2.00
2022-08-20T22:59:16.896Z,1.10
2022-08-20T23:00:16.829Z,1.20
2022-08-20T23:01:16.866Z,1.10
2022-08-20T23:02:16.874Z,1.50
2022-08-20T23:03:18.065Z,1.40
2022-08-20T23:04:17.824Z,1.00
2022-08-20T23:05:16.833Z,1.10
2022-08-20T23:06:16.784Z,1.50
2022-08-20T23:07:16.763Z,1.10
2022-08-20T23:08:16.765Z,1.20
2022-08-20T23:09:21.035Z,1.30
2022-08-20T23:10:16.702Z,1.20
2022-08-20T23:11:16.713Z,1.10
2022-08-20T23:12:16.726Z,1.10
2022-08-20T23:13:16.663Z,1.30
2022-08-20T23:14:16.643Z,1.40
2022-08-20T23:15:16.681Z,1.10
2022-08-20T23:16:16.658Z,1.10
2022-08-20T23:17:16.632Z,1.50
2022-08-20T23:18:16.611Z,1.20
2022-08-20T23:19:16.647Z,1.20
2022-08-20T23:20:16.568Z,1.30
2022-08-20T23:21:16.620Z,1.30
2022-08-20T23:22:16.562Z,1.30
2022-08-20T23:23:16.552Z,1.20
2022-08-20T23:24:16.551Z,0.90
2022-08-20T23:25:16.542Z,1.20
2022-08-20T23:26:16.513Z,1.20
2022-08-20T23:27:16.518Z,1.00
2022-08-20T23:28:16.459Z,1.00
2022-08-20T23:29:16.494Z,1.00
2022-08-20T23:30:17.422Z,1.20
2022-08-20T23:31:16.452Z,1.20
2022-08-20T23:32:16.442Z,1.30
2022-08-20T23:33:16.423Z,1.40
2022-08-20T23:34:16.393Z,1.10
2022-08-20T23:35:16.429Z,1.10
2022-08-20T23:36:16.382Z,0.90
2022-08-20T23:37:16.391Z,1.30
2022-08-20T23:38:16.365Z,1.10
2022-08-20T23:39:16.372Z,1.20
2022-08-20T23:40:16.471Z,1.00
2022-08-20T23:41:16.330Z,1.10
2022-08-20T23:42:16.323Z,1.20
2022-08-20T23:43:16.294Z,1.00
2022-08-20T23:44:25.769Z,1.30
2022-08-20T23:45:17.274Z,1.30
2022-08-20T23:46:17.214Z,1.50
2022-08-20T23:47:16.262Z,1.00
2022-08-20T23:48:16.212Z,1.20
2022-08-20T23:49:16.219Z,1.10
2022-08-20T23:50:16.336Z,1.50
2022-08-20T23:51:16.194Z,1.20
2022-08-20T23:52:16.205Z,1.10
2022-08-20T23:53:16.249Z,1.30
2022-08-20T23:54:16.165Z,1.00
2022-08-20T23:55:16.162Z,1.10
2022-08-20T23:56:16.126Z,1.30
2022-08-20T23:57:16.143Z,1.30
2022-08-20T23:58:16.112Z,1.30
2022-08-20T23:59:16.134Z,1.00
